Blackshear, Georgia
Current Conditions -  °F | °C
As of 10:35 PM on Sunday 23 Nov 2014 (Local Time) from KAYS Reporting Station
Scattered Clouds Scattered Clouds  
Wind Chill: 69°   Ceiling: Unl
Heat Index: 69°   Visibility: 10mi
Dew Point: 68°   Wind: 5mph
Humidity: 99%   Direction: 190°S
Pressure: 29.86"   Gusts: NA
Location:  31.31°N, 82.24°W
Report Text: KAYS 240335Z AUTO 19004KT 10SM SCT100 20/20 A2986 RMK AO2 T02030201
Loading
Personal Weather Stations






























Interactive Weather Map New forecast layout! Learn more

10-Day Weather Forecast

Advertisements
Track Severe Weather on mobile